Time;durP1;ratioP1;P1;durP2;ratioP2;P2;SDS_P1;SDS_P2;PMS_P1;PMS_P2;Temp;Humidity;BMP_temperature;BMP_pressure;BME280_temperature;BME280_humidity;BME280_pressure;Samples;Min_cycle;Max_cycle;Signal;HPM_P1;HPM_P2
2023/07/30 00:00:41;;;;;;;5.40;1.20;;;22.00;77.60;;;;;;5080418;28;20477;-79
2023/07/30 00:03:09;;;;;;;4.10;1.00;;;21.90;77.60;;;;;;5083090;28;20813;-82
2023/07/30 00:05:37;;;;;;;3.40;1.07;;;21.80;77.60;;;;;;5082243;28;20471;-81
2023/07/30 00:08:06;;;;;;;4.20;1.30;;;21.70;77.60;;;;;;5087431;28;20491;-81
2023/07/30 00:10:36;;;;;;;3.90;1.17;;;21.70;77.70;;;;;;5083965;28;20456;-79
2023/07/30 00:13:04;;;;;;;6.60;1.73;;;21.60;77.90;;;;;;5088048;28;20982;-80
2023/07/30 00:15:33;;;;;;;4.43;1.10;;;21.60;78.00;;;;;;5087080;28;20507;-79
2023/07/30 00:18:01;;;;;;;4.30;1.30;;;21.50;78.20;;;;;;5088595;28;20465;-80
2023/07/30 00:20:29;;;;;;;4.10;1.33;;;21.50;78.30;;;;;;5084698;28;20478;-81
2023/07/30 00:22:57;;;;;;;4.97;1.30;;;21.50;78.30;;;;;;5081987;28;20473;-80
2023/07/30 00:25:25;;;;;;;5.60;1.20;;;21.50;78.30;;;;;;5086827;28;20461;-79
2023/07/30 00:27:53;;;;;;;5.87;1.57;;;21.50;78.40;;;;;;5082029;28;20981;-80
2023/07/30 00:30:21;;;;;;;4.80;1.23;;;21.50;78.40;;;;;;5082191;28;20795;-79
2023/07/30 00:32:51;;;;;;;3.80;1.37;;;21.50;78.40;;;;;;5086820;28;20484;-80
2023/07/30 00:35:24;;;;;;;5.53;1.57;;;21.50;78.40;;;;;;5080758;28;20453;-81
2023/07/30 00:37:52;;;;;;;4.90;1.53;;;21.50;78.40;;;;;;5077752;28;21124;-80
2023/07/30 00:40:20;;;;;;;4.00;1.20;;;21.50;78.40;;;;;;5086039;28;20457;-80
2023/07/30 00:42:48;;;;;;;3.90;1.30;;;21.50;78.40;;;;;;5085765;28;20468;-78
2023/07/30 00:45:18;;;;;;;4.17;1.50;;;21.50;78.40;;;;;;5079500;28;20445;-80
2023/07/30 00:47:46;;;;;;;4.13;1.30;;;21.50;78.40;;;;;;5081448;28;20552;-79
2023/07/30 00:50:17;;;;;;;4.33;1.57;;;21.50;78.50;;;;;;5082398;28;20456;-80
2023/07/30 00:52:45;;;;;;;7.10;1.33;;;21.40;78.50;;;;;;5080615;28;20457;-79
2023/07/30 00:55:15;;;;;;;3.80;1.20;;;21.40;78.60;;;;;;5083317;28;20544;-78
2023/07/30 00:57:43;;;;;;;5.60;1.33;;;21.40;78.70;;;;;;5085980;28;20481;-80
2023/07/30 01:00:13;;;;;;;7.87;1.30;;;21.40;78.70;;;;;;5080936;28;21021;-79
2023/07/30 01:02:42;;;;;;;5.87;1.70;;;21.40;78.70;;;;;;5087720;28;20522;-78
2023/07/30 01:05:10;;;;;;;5.73;1.23;;;21.30;78.80;;;;;;5086311;28;20462;-79
2023/07/30 01:07:40;;;;;;;6.43;1.83;;;21.30;78.90;;;;;;5084275;28;20449;-79
2023/07/30 01:10:08;;;;;;;7.50;1.80;;;21.30;78.90;;;;;;5081019;28;21035;-80
2023/07/30 01:12:37;;;;;;;7.10;2.00;;;21.30;79.00;;;;;;5082573;28;20444;-78
2023/07/30 01:15:10;;;;;;;8.63;1.70;;;21.30;79.00;;;;;;5086394;28;20452;-81
2023/07/30 01:17:38;;;;;;;5.30;1.83;;;21.30;79.10;;;;;;5095729;28;20478;-79
2023/07/30 01:20:07;;;;;;;4.80;1.80;;;21.30;79.10;;;;;;5082453;28;20448;-80
2023/07/30 01:22:37;;;;;;;5.50;2.07;;;21.30;79.20;;;;;;5086057;28;20468;-80
2023/07/30 01:25:06;;;;;;;5.90;1.70;;;21.30;79.30;;;;;;5084458;28;20553;-79
2023/07/30 01:27:38;;;;;;;5.17;2.03;;;21.30;79.30;;;;;;5084323;28;20895;-80
2023/07/30 01:30:13;;;;;;;6.70;1.90;;;21.30;79.40;;;;;;5090074;28;20555;-80
2023/07/30 01:32:43;;;;;;;5.80;2.20;;;21.30;79.40;;;;;;5084497;28;20456;-80
2023/07/30 01:35:14;;;;;;;6.97;2.23;;;21.30;79.40;;;;;;5085718;28;20474;-80
2023/07/30 01:37:45;;;;;;;7.07;2.60;;;21.30;79.50;;;;;;5082689;28;20487;-81
2023/07/30 01:40:14;;;;;;;5.13;2.00;;;21.30;79.50;;;;;;5089345;28;20479;-81
2023/07/30 01:42:42;;;;;;;5.50;2.00;;;21.30;79.60;;;;;;5086904;28;20468;-80
2023/07/30 01:45:10;;;;;;;6.20;2.80;;;21.30;79.60;;;;;;5083202;28;21219;-80
2023/07/30 01:47:38;;;;;;;4.60;2.17;;;21.30;79.70;;;;;;5082436;28;20518;-80
2023/07/30 01:50:07;;;;;;;5.07;2.07;;;21.30;79.80;;;;;;5079785;28;20469;-80
2023/07/30 01:52:35;;;;;;;6.37;2.87;;;21.30;79.90;;;;;;5090307;28;21379;-81
2023/07/30 01:55:05;;;;;;;4.70;2.40;;;21.30;80.00;;;;;;5086798;28;20471;-82
2023/07/30 01:57:36;;;;;;;6.90;3.47;;;21.30;80.10;;;;;;5083980;28;20848;-82
2023/07/30 02:00:06;;;;;;;6.53;3.00;;;21.30;80.10;;;;;;5088998;28;20460;-81
2023/07/30 02:02:35;;;;;;;6.37;2.30;;;21.30;80.20;;;;;;5083880;28;21096;-81
2023/07/30 02:05:04;;;;;;;5.77;2.50;;;21.30;80.20;;;;;;5085068;28;20465;-81
2023/07/30 02:07:32;;;;;;;5.70;2.80;;;21.20;80.30;;;;;;5088146;28;20456;-80
2023/07/30 02:10:00;;;;;;;5.80;3.30;;;21.20;80.40;;;;;;5083530;28;20460;-80
2023/07/30 02:12:30;;;;;;;6.20;3.00;;;21.20;80.50;;;;;;5093696;28;20519;-82
2023/07/30 02:14:58;;;;;;;5.63;2.60;;;21.20;80.50;;;;;;5089637;28;21312;-80
2023/07/30 02:17:26;;;;;;;6.77;3.30;;;21.20;80.60;;;;;;5091710;28;20473;-81
2023/07/30 02:19:54;;;;;;;4.70;2.23;;;21.20;80.60;;;;;;5088839;28;20453;-80
2023/07/30 02:22:23;;;;;;;8.33;2.67;;;21.20;80.60;;;;;;5085978;28;20458;-79
2023/07/30 02:24:51;;;;;;;5.80;2.40;;;21.20;80.60;;;;;;5084841;28;20994;-80
2023/07/30 02:27:19;;;;;;;9.23;2.90;;;21.20;80.60;;;;;;5089027;28;20444;-81
2023/07/30 02:29:49;;;;;;;10.97;3.93;;;21.20;80.60;;;;;;5086422;28;20583;-80
2023/07/30 02:32:17;;;;;;;8.57;2.83;;;21.20;80.60;;;;;;5089651;28;20500;-79
2023/07/30 02:34:45;;;;;;;8.83;3.03;;;21.20;80.60;;;;;;5080837;28;20510;-81
2023/07/30 02:37:14;;;;;;;7.17;3.20;;;21.20;80.60;;;;;;5087812;28;20580;-81
2023/07/30 02:39:42;;;;;;;10.43;2.97;;;21.20;80.70;;;;;;5103335;28;20460;-80
2023/07/30 02:42:10;;;;;;;7.50;3.90;;;21.20;80.70;;;;;;5084373;28;20454;-80
2023/07/30 02:44:38;;;;;;;5.70;3.10;;;21.20;80.90;;;;;;5088254;28;20603;-80
2023/07/30 02:47:07;;;;;;;7.10;3.27;;;21.20;80.90;;;;;;5084484;28;21258;-80
2023/07/30 02:49:35;;;;;;;5.43;3.30;;;21.20;80.90;;;;;;5086421;28;20457;-81
2023/07/30 02:52:03;;;;;;;9.67;3.20;;;21.20;81.00;;;;;;5083251;28;20454;-79
2023/07/30 02:54:31;;;;;;;7.73;3.47;;;21.20;81.10;;;;;;5078025;28;20911;-80
2023/07/30 02:56:59;;;;;;;6.77;3.13;;;21.20;81.10;;;;;;5089046;28;20994;-80
2023/07/30 02:59:28;;;;;;;8.03;2.80;;;21.20;81.10;;;;;;5083058;28;20449;-80
2023/07/30 03:01:56;;;;;;;15.83;3.83;;;21.30;81.20;;;;;;5083765;28;20471;-80
2023/07/30 03:04:26;;;;;;;6.17;3.10;;;21.30;81.20;;;;;;5090388;28;20771;-80
2023/07/30 03:06:54;;;;;;;5.50;2.83;;;21.30;81.30;;;;;;5086457;28;20950;-81
2023/07/30 03:09:22;;;;;;;6.27;2.90;;;21.30;81.30;;;;;;5082194;28;20458;-81
2023/07/30 03:11:51;;;;;;;9.07;2.97;;;21.30;81.30;;;;;;5087770;28;20484;-80
2023/07/30 03:14:20;;;;;;;6.90;3.07;;;21.40;81.30;;;;;;5102506;28;20486;-81
2023/07/30 03:16:48;;;;;;;5.80;3.23;;;21.40;81.40;;;;;;5084158;28;21121;-79
2023/07/30 03:19:16;;;;;;;10.87;3.53;;;21.40;81.40;;;;;;5076182;28;20488;-81
2023/07/30 03:21:46;;;;;;;6.50;3.17;;;21.40;81.50;;;;;;5085927;28;20550;-80
2023/07/30 03:24:14;;;;;;;10.37;3.30;;;21.40;81.50;;;;;;5088132;28;20444;-80
2023/07/30 03:26:42;;;;;;;7.63;3.70;;;21.30;81.60;;;;;;5089330;28;21049;-81
2023/07/30 03:29:15;;;;;;;6.40;2.97;;;21.30;81.70;;;;;;5083759;28;20528;-79
2023/07/30 03:31:43;;;;;;;7.60;3.40;;;21.30;81.70;;;;;;5089706;28;20654;-80
2023/07/30 03:34:11;;;;;;;7.83;3.30;;;21.30;81.70;;;;;;5084925;28;20449;-81
2023/07/30 03:36:40;;;;;;;6.77;3.17;;;21.30;81.70;;;;;;5084091;28;20492;-80
2023/07/30 03:39:10;;;;;;;8.23;3.40;;;21.30;81.80;;;;;;5088353;28;20479;-79
2023/07/30 03:41:38;;;;;;;15.23;3.23;;;21.20;81.90;;;;;;5086635;28;20468;-80
2023/07/30 03:44:06;;;;;;;8.70;3.00;;;21.20;82.00;;;;;;5088668;28;21146;-79
2023/07/30 03:46:35;;;;;;;10.20;3.07;;;21.20;82.00;;;;;;5080917;28;20453;-80
2023/07/30 03:49:06;;;;;;;8.70;2.90;;;21.20;82.10;;;;;;5086739;28;20453;-79
2023/07/30 03:51:35;;;;;;;8.00;3.30;;;21.20;82.10;;;;;;5087120;28;20486;-80
2023/07/30 03:54:03;;;;;;;5.97;3.23;;;21.20;82.10;;;;;;5088717;28;20452;-80
2023/07/30 03:56:33;;;;;;;10.17;2.67;;;21.20;82.10;;;;;;5083000;28;20467;-79
2023/07/30 03:59:01;;;;;;;7.10;2.93;;;21.20;82.20;;;;;;5086892;28;20871;-80
2023/07/30 04:01:30;;;;;;;6.87;2.70;;;21.20;82.20;;;;;;5078463;28;20484;-79
2023/07/30 04:03:58;;;;;;;5.90;2.63;;;21.10;82.30;;;;;;5085820;28;20974;-79
2023/07/30 04:06:26;;;;;;;13.10;3.43;;;21.10;82.40;;;;;;5087633;28;20820;-81
2023/07/30 04:08:54;;;;;;;6.67;3.10;;;21.10;82.30;;;;;;5084786;28;20470;-80
2023/07/30 04:11:22;;;;;;;8.80;3.90;;;21.10;82.20;;;;;;5083079;28;20986;-81
2023/07/30 04:13:51;;;;;;;7.70;3.00;;;21.10;82.30;;;;;;5088548;28;20481;-80
2023/07/30 04:16:19;;;;;;;7.77;3.17;;;21.10;82.30;;;;;;5087225;28;21838;-79
2023/07/30 04:18:47;;;;;;;8.50;3.87;;;21.10;82.30;;;;;;5085535;28;20468;-81
2023/07/30 04:21:15;;;;;;;8.43;3.30;;;21.10;82.30;;;;;;5086730;28;21487;-79
2023/07/30 04:23:43;;;;;;;10.30;3.87;;;21.20;82.20;;;;;;5081949;28;20541;-81
2023/07/30 04:26:11;;;;;;;7.30;3.27;;;21.10;82.10;;;;;;5084815;28;20452;-81
2023/07/30 04:28:39;;;;;;;9.10;2.93;;;21.20;82.00;;;;;;5088168;28;20449;-81
2023/07/30 04:31:09;;;;;;;10.87;3.60;;;21.10;82.10;;;;;;5081817;28;20842;-80
2023/07/30 04:33:37;;;;;;;13.23;3.30;;;21.10;82.10;;;;;;5087834;28;20847;-80
2023/07/30 04:36:06;;;;;;;5.93;3.13;;;21.10;82.10;;;;;;5084630;28;20473;-81
2023/07/30 04:38:36;;;;;;;10.87;4.07;;;21.10;82.00;;;;;;5086241;28;20505;-78
2023/07/30 04:41:04;;;;;;;8.13;3.00;;;21.10;82.00;;;;;;5089125;28;20457;-79
2023/07/30 04:43:38;;;;;;;7.37;2.83;;;21.10;82.00;;;;;;5085484;28;20491;-78
2023/07/30 04:46:06;;;;;;;10.40;3.30;;;21.10;82.00;;;;;;5081125;28;20450;-80
2023/07/30 04:48:37;;;;;;;7.20;3.40;;;21.10;82.10;;;;;;5081450;28;20453;-79
2023/07/30 04:51:07;;;;;;;9.43;3.20;;;21.20;82.10;;;;;;5088927;28;20556;-80
2023/07/30 04:53:35;;;;;;;12.40;4.10;;;21.20;82.10;;;;;;5086630;28;20459;-81
2023/07/30 04:56:03;;;;;;;5.87;2.97;;;21.30;82.20;;;;;;5085835;28;21142;-82
2023/07/30 04:58:31;;;;;;;6.30;2.90;;;21.40;82.10;;;;;;5086603;28;20564;-80
2023/07/30 05:00:59;;;;;;;7.27;3.40;;;21.50;82.20;;;;;;5083724;28;20496;-80
2023/07/30 05:03:27;;;;;;;6.37;3.30;;;21.60;82.30;;;;;;5085435;28;20492;-81
2023/07/30 05:05:56;;;;;;;7.50;2.80;;;21.70;82.30;;;;;;5086948;28;20448;-81
2023/07/30 05:08:24;;;;;;;5.60;2.57;;;21.80;82.20;;;;;;5082972;28;20981;-80
2023/07/30 05:10:52;;;;;;;7.30;2.43;;;21.90;82.00;;;;;;5088878;28;20639;-81
2023/07/30 05:13:20;;;;;;;4.90;2.33;;;22.00;82.10;;;;;;5097539;28;20786;-80
2023/07/30 05:15:48;;;;;;;6.90;2.70;;;22.10;81.80;;;;;;5079701;28;20459;-80
2023/07/30 05:18:16;;;;;;;14.00;2.83;;;22.10;81.40;;;;;;5085455;28;20951;-81
2023/07/30 05:20:46;;;;;;;6.17;3.00;;;22.10;81.20;;;;;;5084806;28;20465;-80
2023/07/30 05:23:16;;;;;;;5.80;2.50;;;22.10;81.20;;;;;;5089390;28;20453;-82
2023/07/30 05:25:44;;;;;;;5.80;2.17;;;22.10;81.10;;;;;;5091807;28;20467;-80
2023/07/30 05:28:12;;;;;;;6.23;2.33;;;22.10;80.90;;;;;;5089538;28;20810;-81
2023/07/30 05:30:40;;;;;;;5.80;2.83;;;22.10;81.00;;;;;;5085707;28;20476;-79
2023/07/30 05:33:08;;;;;;;7.50;2.73;;;22.00;80.90;;;;;;5084623;28;20471;-82
2023/07/30 05:35:37;;;;;;;9.17;2.37;;;21.90;80.90;;;;;;5087603;28;20463;-81
2023/07/30 05:38:05;;;;;;;5.70;2.30;;;21.90;80.90;;;;;;5082618;28;20552;-81
2023/07/30 05:40:35;;;;;;;6.00;2.43;;;22.00;82.30;;;;;;5083120;28;20509;-81
2023/07/30 05:43:06;;;;;;;5.53;2.67;;;22.60;80.90;;;;;;5090611;28;20540;-80
2023/07/30 05:45:35;;;;;;;7.00;2.80;;;22.70;79.70;;;;;;5091181;28;20444;-79
2023/07/30 05:48:03;;;;;;;6.40;3.17;;;22.60;79.40;;;;;;5090684;28;20464;-79
2023/07/30 05:50:31;;;;;;;7.90;3.20;;;22.50;79.40;;;;;;5090344;28;20449;-83
2023/07/30 05:52:59;;;;;;;8.00;2.70;;;22.30;79.60;;;;;;5087057;28;20457;-82
2023/07/30 05:55:27;;;;;;;5.13;2.53;;;22.30;79.90;;;;;;5089030;28;21060;-82
2023/07/30 05:57:57;;;;;;;5.70;3.03;;;22.20;80.00;;;;;;5092222;28;20453;-80
2023/07/30 06:00:25;;;;;;;8.73;3.10;;;22.20;80.20;;;;;;5088837;28;20461;-79
2023/07/30 06:02:54;;;;;;;5.27;2.80;;;22.20;80.20;;;;;;5089430;28;20591;-82
2023/07/30 06:05:22;;;;;;;8.43;2.87;;;22.10;80.30;;;;;;5088899;28;20476;-83
2023/07/30 06:07:50;;;;;;;6.20;3.40;;;22.10;80.30;;;;;;5085004;28;20467;-80
2023/07/30 06:10:18;;;;;;;6.40;2.70;;;22.10;80.40;;;;;;5083606;28;20445;-80
2023/07/30 06:12:46;;;;;;;6.87;2.73;;;22.10;80.40;;;;;;5092020;28;20484;-82
2023/07/30 06:15:15;;;;;;;5.67;2.60;;;22.10;80.40;;;;;;5086061;28;20456;-80
2023/07/30 06:17:44;;;;;;;7.80;2.63;;;22.10;80.30;;;;;;5104281;28;20808;-80
2023/07/30 06:20:13;;;;;;;6.03;2.40;;;22.10;80.20;;;;;;5087009;28;20483;-82
2023/07/30 06:22:41;;;;;;;8.70;2.70;;;22.10;80.30;;;;;;5087969;28;20466;-82
2023/07/30 06:25:09;;;;;;;6.00;2.83;;;22.10;80.30;;;;;;5088170;28;20461;-81
2023/07/30 06:27:37;;;;;;;4.77;2.30;;;22.10;80.20;;;;;;5082386;28;20950;-81
2023/07/30 06:30:06;;;;;;;9.70;2.90;;;22.10;80.20;;;;;;5088549;28;20455;-81
2023/07/30 06:32:37;;;;;;;5.07;2.33;;;22.10;80.20;;;;;;5082920;28;20579;-78
2023/07/30 06:35:06;;;;;;;7.30;2.80;;;22.10;80.20;;;;;;5089156;28;20457;-80
2023/07/30 06:37:34;;;;;;;6.90;2.63;;;22.10;80.20;;;;;;5084492;28;20517;-80
2023/07/30 06:40:06;;;;;;;7.67;2.33;;;22.10;80.10;;;;;;5089054;28;20495;-81
2023/07/30 06:42:35;;;;;;;5.33;2.47;;;22.10;80.10;;;;;;5087161;28;20816;-79
2023/07/30 06:45:04;;;;;;;6.10;2.50;;;22.10;80.20;;;;;;5085690;28;20455;-82
2023/07/30 06:47:32;;;;;;;6.23;3.10;;;22.10;80.20;;;;;;5085284;28;20793;-80
2023/07/30 06:50:08;;;;;;;6.23;2.67;;;22.10;80.20;;;;;;5085257;28;20502;-81
2023/07/30 06:52:36;;;;;;;4.97;2.63;;;22.10;80.10;;;;;;5089599;28;20974;-81
2023/07/30 06:55:05;;;;;;;7.73;2.93;;;22.10;80.20;;;;;;5089623;28;20458;-79
2023/07/30 06:57:33;;;;;;;5.40;2.57;;;22.10;80.20;;;;;;5087780;28;20461;-80
2023/07/30 07:00:02;;;;;;;5.43;2.80;;;22.20;80.30;;;;;;5087374;28;20962;-80
2023/07/30 07:02:31;;;;;;;6.50;2.70;;;22.20;80.30;;;;;;5088537;28;20905;-79
2023/07/30 07:04:59;;;;;;;7.20;3.23;;;22.30;80.30;;;;;;5083373;28;20449;-78
2023/07/30 07:07:28;;;;;;;11.00;3.30;;;22.40;80.20;;;;;;5083071;28;21012;-78
2023/07/30 07:09:57;;;;;;;6.67;2.60;;;22.40;80.10;;;;;;5081939;28;20939;-80
2023/07/30 07:12:25;;;;;;;4.83;2.23;;;22.50;80.10;;;;;;5090173;28;20449;-82
2023/07/30 07:14:57;;;;;;;6.00;2.40;;;22.50;79.80;;;;;;5086729;28;20464;-79
2023/07/30 07:17:25;;;;;;;5.13;2.63;;;22.50;79.60;;;;;;5088407;28;20461;-79
2023/07/30 07:19:53;;;;;;;4.97;2.33;;;22.50;79.50;;;;;;5086784;28;20511;-81
2023/07/30 07:22:24;;;;;;;4.77;2.43;;;22.50;79.40;;;;;;5084982;28;20468;-81
2023/07/30 07:24:54;;;;;;;7.00;2.53;;;22.60;79.30;;;;;;5084269;28;20456;-79
2023/07/30 07:27:23;;;;;;;7.57;3.20;;;22.60;79.20;;;;;;5089155;28;20467;-80
2023/07/30 07:29:52;;;;;;;5.37;2.23;;;22.60;79.10;;;;;;5086496;28;20445;-79
2023/07/30 07:32:20;;;;;;;6.30;3.10;;;22.70;79.00;;;;;;5082800;28;20481;-81
2023/07/30 07:34:48;;;;;;;7.67;2.70;;;22.70;78.90;;;;;;5080414;28;20812;-80
2023/07/30 07:37:18;;;;;;;5.90;2.47;;;22.80;78.80;;;;;;5086622;28;20469;-79
2023/07/30 07:39:46;;;;;;;5.40;2.43;;;22.80;78.60;;;;;;5088599;28;20480;-80
2023/07/30 07:42:16;;;;;;;4.50;2.30;;;22.70;78.50;;;;;;5083332;28;20441;-80
2023/07/30 07:44:45;;;;;;;4.70;2.50;;;22.80;78.40;;;;;;5087492;28;20456;-80
2023/07/30 07:47:14;;;;;;;5.33;2.50;;;22.80;78.40;;;;;;5088387;28;20461;-81
2023/07/30 07:49:42;;;;;;;5.33;2.40;;;22.80;78.20;;;;;;5086905;28;20507;-79
2023/07/30 07:52:10;;;;;;;4.70;2.50;;;22.80;77.90;;;;;;5084950;28;20497;-80
2023/07/30 07:54:48;;;;;;;5.13;2.60;;;22.80;77.80;;;;;;5083168;28;20559;-79
2023/07/30 07:57:17;;;;;;;6.93;2.43;;;22.90;77.70;;;;;;5082347;28;20487;-80
2023/07/30 07:59:45;;;;;;;4.87;2.27;;;22.90;77.70;;;;;;5081276;28;20469;-80
2023/07/30 08:02:13;;;;;;;6.17;2.40;;;22.90;77.50;;;;;;5063684;28;20512;-80
2023/07/30 08:04:43;;;;;;;5.07;2.30;;;22.90;77.30;;;;;;5084501;28;20467;-82
2023/07/30 08:07:11;;;;;;;4.70;2.13;;;22.90;77.10;;;;;;5086795;28;20463;-80
2023/07/30 08:09:39;;;;;;;5.73;2.07;;;22.90;76.90;;;;;;5082401;28;20457;-80
2023/07/30 08:12:07;;;;;;;6.83;2.00;;;22.90;76.80;;;;;;5097362;28;20460;-81
2023/07/30 08:14:37;;;;;;;4.20;1.57;;;23.00;76.50;;;;;;5098041;28;20549;-83
2023/07/30 08:17:09;;;;;;;4.13;1.60;;;22.90;76.10;;;;;;5085130;28;20464;-81
2023/07/30 08:19:36;;;;;;;6.83;1.70;;;23.00;75.80;;;;;;5084937;28;20554;-79
2023/07/30 08:22:05;;;;;;;4.40;1.70;;;23.00;75.50;;;;;;5080213;28;20512;-80
2023/07/30 08:24:33;;;;;;;5.70;1.80;;;23.10;75.30;;;;;;5079410;28;20472;-82
2023/07/30 08:27:01;;;;;;;4.73;2.00;;;23.10;75.20;;;;;;5083330;28;20470;-81
2023/07/30 08:29:31;;;;;;;5.83;2.30;;;23.20;75.20;;;;;;5078597;28;20466;-83
2023/07/30 08:32:00;;;;;;;6.33;1.77;;;23.20;75.10;;;;;;5082028;28;20472;-80
2023/07/30 08:34:29;;;;;;;5.67;2.00;;;23.20;74.90;;;;;;5081777;28;20460;-81
2023/07/30 08:36:57;;;;;;;7.70;1.90;;;23.30;74.70;;;;;;5089581;28;20553;-82
2023/07/30 08:39:26;;;;;;;7.03;1.80;;;23.40;74.70;;;;;;5084383;28;20841;-81
2023/07/30 08:41:54;;;;;;;6.03;1.70;;;23.40;74.50;;;;;;5102289;28;20477;-81
2023/07/30 08:44:23;;;;;;;4.97;1.40;;;23.50;74.30;;;;;;5084154;28;20535;-81
2023/07/30 08:46:51;;;;;;;9.53;1.80;;;23.50;74.00;;;;;;5084914;28;20543;-81
2023/07/30 08:49:24;;;;;;;4.50;1.60;;;23.40;73.80;;;;;;5083213;28;20466;-80
2023/07/30 08:51:54;;;;;;;6.90;1.83;;;23.40;73.50;;;;;;5088208;28;20533;-83
2023/07/30 08:54:24;;;;;;;5.83;1.40;;;23.30;73.20;;;;;;5084444;28;20475;-78
2023/07/30 08:56:52;;;;;;;4.47;1.63;;;23.20;73.10;;;;;;5081734;28;20563;-79
2023/07/30 08:59:22;;;;;;;6.73;1.60;;;23.20;73.00;;;;;;5086500;28;20552;-79
2023/07/30 09:01:53;;;;;;;4.23;1.50;;;23.20;73.00;;;;;;5083105;28;20487;-79
2023/07/30 09:04:23;;;;;;;7.53;1.60;;;23.20;73.00;;;;;;5081321;28;20488;-79
2023/07/30 09:06:51;;;;;;;3.90;1.40;;;23.10;73.10;;;;;;5087469;28;20456;-79
2023/07/30 09:09:21;;;;;;;6.83;1.93;;;23.10;73.20;;;;;;5079521;28;20556;-78
2023/07/30 09:11:53;;;;;;;4.77;1.80;;;23.00;73.20;;;;;;5081330;28;20460;-79
2023/07/30 09:14:21;;;;;;;5.67;1.80;;;23.00;73.40;;;;;;5084506;28;20464;-78
2023/07/30 09:16:52;;;;;;;12.63;2.37;;;23.00;73.40;;;;;;5085447;28;20464;-78
2023/07/30 09:19:20;;;;;;;10.90;2.23;;;22.90;73.70;;;;;;5087993;28;20456;-78
2023/07/30 09:21:50;;;;;;;8.40;2.07;;;22.70;74.00;;;;;;5080206;28;20845;-78
2023/07/30 09:24:22;;;;;;;7.00;2.33;;;22.70;74.40;;;;;;5092046;28;20455;-78
2023/07/30 09:26:50;;;;;;;4.70;1.70;;;22.60;74.70;;;;;;5083670;28;20448;-79
2023/07/30 09:29:18;;;;;;;4.17;1.40;;;22.50;74.90;;;;;;5093546;28;20983;-79
2023/07/30 09:31:50;;;;;;;4.97;1.73;;;22.40;75.10;;;;;;5091105;28;20469;-78
2023/07/30 09:34:20;;;;;;;6.80;2.27;;;22.40;75.40;;;;;;5092851;28;20460;-78
2023/07/30 09:36:51;;;;;;;4.40;1.83;;;22.30;75.70;;;;;;5092394;28;20467;-79
2023/07/30 09:39:22;;;;;;;5.90;2.17;;;22.30;76.10;;;;;;5090891;28;20547;-79
2023/07/30 09:41:53;;;;;;;4.97;2.10;;;22.30;76.30;;;;;;5081806;28;20473;-79
2023/07/30 09:44:25;;;;;;;4.40;1.70;;;22.30;76.60;;;;;;5090378;28;20468;-78
2023/07/30 09:46:53;;;;;;;6.63;2.00;;;22.40;76.90;;;;;;5087060;28;20480;-79
2023/07/30 09:49:21;;;;;;;4.40;1.77;;;22.40;77.20;;;;;;5086310;28;20492;-79
2023/07/30 09:51:54;;;;;;;5.33;1.80;;;22.50;77.20;;;;;;5084453;28;20488;-79
2023/07/30 09:54:24;;;;;;;8.83;2.03;;;22.50;77.30;;;;;;5084542;28;20533;-79
2023/07/30 09:56:56;;;;;;;4.43;1.57;;;22.60;77.50;;;;;;5089868;28;20460;-79
2023/07/30 09:59:25;;;;;;;4.70;1.90;;;22.70;77.50;;;;;;5087156;28;20445;-78
2023/07/30 10:01:55;;;;;;;5.60;2.03;;;22.70;77.70;;;;;;5086887;28;20479;-78
2023/07/30 10:04:25;;;;;;;4.80;1.73;;;22.80;77.70;;;;;;5083528;28;20679;-78
2023/07/30 10:07:02;;;;;;;5.57;2.43;;;22.80;77.80;;;;;;5089052;28;20536;-78
2023/07/30 10:09:34;;;;;;;3.90;1.90;;;22.90;77.80;;;;;;5085793;28;20545;-78
2023/07/30 10:12:04;;;;;;;4.27;2.10;;;22.90;77.90;;;;;;5083748;28;20453;-79
2023/07/30 10:14:33;;;;;;;4.70;2.60;;;23.00;77.90;;;;;;5085769;28;20457;-78
2023/07/30 10:17:01;;;;;;;4.60;2.23;;;23.10;77.90;;;;;;5091907;28;20459;-79
2023/07/30 10:19:35;;;;;;;6.00;2.63;;;23.20;77.90;;;;;;5082633;28;20449;-78
2023/07/30 10:22:22;;;;;;;4.93;2.50;;;23.20;77.80;;;;;;5085796;28;20468;-79
2023/07/30 10:24:58;;;;;;;4.63;2.43;;;23.30;77.70;;;;;;5082745;28;20453;-79
2023/07/30 10:27:28;;;;;;;5.80;3.17;;;23.20;77.60;;;;;;5086823;28;21016;-79
2023/07/30 10:30:13;;;;;;;5.07;2.60;;;23.20;77.70;;;;;;5095001;28;20877;-78
2023/07/30 10:32:42;;;;;;;4.83;2.57;;;23.20;77.90;;;;;;5080840;28;20519;-78
2023/07/30 10:35:18;;;;;;;5.40;2.03;;;23.30;78.00;;;;;;5083303;28;20449;-78
2023/07/30 10:37:48;;;;;;;9.87;3.60;;;23.30;77.90;;;;;;5105525;28;20543;-79
2023/07/30 10:40:40;;;;;;;5.20;2.60;;;23.30;78.00;;;;;;5084426;28;20456;-78
2023/07/30 10:43:18;;;;;;;5.60;2.43;;;23.30;77.90;;;;;;5084505;28;20481;-79
2023/07/30 10:45:50;;;;;;;5.77;2.50;;;23.30;78.10;;;;;;5083641;28;20451;-79
2023/07/30 10:48:30;;;;;;;6.77;3.00;;;23.40;78.10;;;;;;5085832;28;20538;-79
2023/07/30 10:50:58;;;;;;;6.43;2.70;;;23.40;77.90;;;;;;5083902;28;21039;-79
2023/07/30 10:53:32;;;;;;;5.70;2.73;;;23.50;77.70;;;;;;5087438;28;20478;-80
2023/07/30 10:56:02;;;;;;;6.30;2.70;;;23.60;77.50;;;;;;5083421;28;20938;-79
2023/07/30 10:58:31;;;;;;;8.50;2.40;;;23.70;77.30;;;;;;5080521;28;20480;-79
2023/07/30 11:01:08;;;;;;;5.30;2.40;;;23.70;77.20;;;;;;5084186;28;20493;-79
2023/07/30 11:03:37;;;;;;;4.90;2.27;;;23.80;76.60;;;;;;5087648;28;20484;-80
2023/07/30 11:06:07;;;;;;;6.50;2.60;;;23.80;76.50;;;;;;5082986;28;20460;-79
2023/07/30 11:08:40;;;;;;;6.17;2.50;;;23.80;75.50;;;;;;5088870;28;20449;-79
2023/07/30 11:11:11;;;;;;;7.33;2.43;;;23.80;75.00;;;;;;5085598;28;20552;-77
2023/07/30 11:13:40;;;;;;;6.83;2.90;;;23.80;74.30;;;;;;5083753;28;21128;-79
2023/07/30 11:16:10;;;;;;;6.57;2.13;;;23.80;73.80;;;;;;5083240;28;20452;-78
2023/07/30 11:18:43;;;;;;;7.20;2.57;;;23.70;73.10;;;;;;5084292;28;20462;-79
2023/07/30 11:21:16;;;;;;;6.97;1.77;;;23.50;72.40;;;;;;5082088;28;20492;-80
2023/07/30 11:23:47;;;;;;;4.70;1.40;;;23.40;71.70;;;;;;5082653;28;20523;-80
2023/07/30 11:26:20;;;;;;;5.20;1.23;;;23.30;71.20;;;;;;5083721;28;20555;-80
2023/07/30 11:28:48;;;;;;;9.40;1.40;;;23.30;71.00;;;;;;5088224;28;20456;-79
2023/07/30 11:31:20;;;;;;;6.17;1.53;;;23.30;70.80;;;;;;5082650;28;20480;-79
2023/07/30 11:33:51;;;;;;;5.30;1.23;;;23.20;70.00;;;;;;5081310;28;20824;-78
2023/07/30 11:36:22;;;;;;;3.93;1.00;;;23.20;70.10;;;;;;5088226;28;20744;-80
2023/07/30 11:38:58;;;;;;;3.83;1.20;;;23.10;69.90;;;;;;5084999;28;20819;-78
2023/07/30 11:41:26;;;;;;;5.63;1.07;;;23.10;69.90;;;;;;5080434;28;20509;-78
2023/07/30 11:43:56;;;;;;;8.63;1.57;;;23.10;70.10;;;;;;5086209;28;20487;-78
2023/07/30 11:46:25;;;;;;;6.70;1.07;;;23.10;69.70;;;;;;5079674;28;20962;-80
2023/07/30 11:49:12;;;;;;;3.87;1.10;;;23.10;69.70;;;;;;5087169;28;20548;-78
2023/07/30 11:51:42;;;;;;;4.37;1.20;;;23.10;69.80;;;;;;5082719;28;20457;-79
2023/07/30 11:54:25;;;;;;;4.90;1.13;;;23.10;70.00;;;;;;5083454;28;20892;-78
2023/07/30 11:56:58;;;;;;;6.60;1.30;;;23.20;70.00;;;;;;5087193;28;20479;-79
2023/07/30 11:59:28;;;;;;;6.50;1.50;;;23.10;70.00;;;;;;5085909;28;20460;-77
2023/07/30 12:01:56;;;;;;;4.50;1.00;;;23.20;69.90;;;;;;5084201;28;20480;-77
2023/07/30 12:04:27;;;;;;;4.03;1.03;;;23.30;69.70;;;;;;5084624;28;20486;-78
2023/07/30 12:06:55;;;;;;;5.47;1.30;;;23.30;69.60;;;;;;5085060;28;20496;-80
2023/07/30 12:09:26;;;;;;;3.73;0.83;;;23.40;69.50;;;;;;5084985;28;20966;-78
2023/07/30 12:11:57;;;;;;;4.43;1.00;;;23.30;69.60;;;;;;5086835;28;20493;-78
2023/07/30 12:14:31;;;;;;;3.90;1.20;;;23.30;69.40;;;;;;5085451;28;20465;-78
2023/07/30 12:16:59;;;;;;;4.53;1.33;;;23.30;69.20;;;;;;5084050;28;20492;-78
2023/07/30 12:19:29;;;;;;;4.93;1.00;;;23.30;69.00;;;;;;5084685;28;20460;-78
2023/07/30 12:21:57;;;;;;;6.13;1.23;;;23.30;69.00;;;;;;5081760;28;20959;-79
2023/07/30 12:24:27;;;;;;;3.30;0.80;;;23.30;69.00;;;;;;5086956;28;20943;-78
2023/07/30 12:26:55;;;;;;;3.80;1.00;;;23.30;68.80;;;;;;5077195;28;21293;-78
2023/07/30 12:29:23;;;;;;;4.00;1.33;;;23.30;68.80;;;;;;5086737;28;20453;-78
2023/07/30 12:31:53;;;;;;;3.67;0.93;;;23.30;68.40;;;;;;5083044;28;20534;-78
2023/07/30 12:34:24;;;;;;;4.87;1.20;;;23.20;68.60;;;;;;5087411;28;20986;-79
2023/07/30 12:36:56;;;;;;;8.70;1.10;;;23.20;68.60;;;;;;5084765;28;20862;-78
2023/07/30 12:39:24;;;;;;;5.90;1.40;;;23.20;68.60;;;;;;5082149;28;21298;-78
2023/07/30 12:41:54;;;;;;;5.00;1.00;;;23.20;68.20;;;;;;5081883;28;20470;-79
2023/07/30 12:44:23;;;;;;;5.10;1.40;;;23.20;68.00;;;;;;5086730;28;20494;-78
2023/07/30 12:46:53;;;;;;;4.67;1.20;;;23.20;68.00;;;;;;5088121;28;20499;-79
2023/07/30 12:49:24;;;;;;;5.73;1.50;;;23.20;67.60;;;;;;5085195;28;21004;-79
2023/07/30 12:51:55;;;;;;;4.30;1.10;;;23.20;67.20;;;;;;5079864;28;20489;-79
2023/07/30 12:54:25;;;;;;;4.57;1.53;;;23.20;67.30;;;;;;5087320;28;20449;-79
2023/07/30 12:56:55;;;;;;;4.90;1.50;;;23.20;67.30;;;;;;5083813;28;20574;-79